sensor_id;sensor_type;location;lat;lon;timestamp;P1;durP1;ratioP1;P2;durP2;ratioP2
51312;SDS011;37397;53.226;10.400;2024-01-10T00:02:20;30.45;;;17.52;;
51312;SDS011;37397;53.226;10.400;2024-01-10T00:04:47;29.33;;;16.92;;
51312;SDS011;37397;53.226;10.400;2024-01-10T00:07:14;30.95;;;17.63;;
51312;SDS011;37397;53.226;10.400;2024-01-10T00:09:40;32.05;;;17.58;;
51312;SDS011;37397;53.226;10.400;2024-01-10T00:12:07;33.35;;;18.63;;
51312;SDS011;37397;53.226;10.400;2024-01-10T00:14:34;32.05;;;17.60;;
51312;SDS011;37397;53.226;10.400;2024-01-10T00:17:00;32.53;;;18.15;;
51312;SDS011;37397;53.226;10.400;2024-01-10T00:19:27;31.27;;;17.05;;
51312;SDS011;37397;53.226;10.400;2024-01-10T00:21:53;32.83;;;18.38;;
51312;SDS011;37397;53.226;10.400;2024-01-10T00:24:20;30.55;;;17.70;;
51312;SDS011;37397;53.226;10.400;2024-01-10T00:26:46;30.60;;;17.42;;
51312;SDS011;37397;53.226;10.400;2024-01-10T00:29:13;29.52;;;16.75;;
51312;SDS011;37397;53.226;10.400;2024-01-10T00:31:40;31.08;;;17.92;;
51312;SDS011;37397;53.226;10.400;2024-01-10T00:34:07;32.75;;;18.55;;
51312;SDS011;37397;53.226;10.400;2024-01-10T00:36:33;32.38;;;18.05;;
51312;SDS011;37397;53.226;10.400;2024-01-10T00:39:00;31.02;;;18.33;;
51312;SDS011;37397;53.226;10.400;2024-01-10T00:41:26;29.50;;;17.08;;
51312;SDS011;37397;53.226;10.400;2024-01-10T00:43:53;30.80;;;16.98;;
51312;SDS011;37397;53.226;10.400;2024-01-10T00:46:19;32.03;;;17.95;;
51312;SDS011;37397;53.226;10.400;2024-01-10T00:48:46;32.47;;;17.15;;
51312;SDS011;37397;53.226;10.400;2024-01-10T00:51:13;30.52;;;17.30;;
51312;SDS011;37397;53.226;10.400;2024-01-10T00:53:40;30.20;;;17.48;;
51312;SDS011;37397;53.226;10.400;2024-01-10T00:56:06;30.67;;;17.30;;
51312;SDS011;37397;53.226;10.400;2024-01-10T00:58:33;33.25;;;18.52;;
51312;SDS011;37397;53.226;10.400;2024-01-10T01:01:00;27.40;;;16.63;;
51312;SDS011;37397;53.226;10.400;2024-01-10T01:03:27;30.83;;;17.73;;
51312;SDS011;37397;53.226;10.400;2024-01-10T01:05:53;34.13;;;17.90;;
51312;SDS011;37397;53.226;10.400;2024-01-10T01:08:20;32.42;;;17.63;;
51312;SDS011;37397;53.226;10.400;2024-01-10T01:10:47;31.25;;;17.70;;
51312;SDS011;37397;53.226;10.400;2024-01-10T01:13:14;32.88;;;16.88;;
51312;SDS011;37397;53.226;10.400;2024-01-10T01:15:40;34.65;;;17.60;;
51312;SDS011;37397;53.226;10.400;2024-01-10T01:18:07;35.83;;;17.48;;
51312;SDS011;37397;53.226;10.400;2024-01-10T01:20:36;33.47;;;18.50;;
51312;SDS011;37397;53.226;10.400;2024-01-10T01:23:02;27.17;;;15.95;;
51312;SDS011;37397;53.226;10.400;2024-01-10T01:25:29;32.17;;;18.05;;
51312;SDS011;37397;53.226;10.400;2024-01-10T01:27:56;31.30;;;17.08;;
51312;SDS011;37397;53.226;10.400;2024-01-10T01:30:22;28.10;;;16.80;;
51312;SDS011;37397;53.226;10.400;2024-01-10T01:32:49;30.92;;;17.13;;
51312;SDS011;37397;53.226;10.400;2024-01-10T01:35:16;28.27;;;17.23;;
51312;SDS011;37397;53.226;10.400;2024-01-10T01:37:48;39.75;;;18.80;;
51312;SDS011;37397;53.226;10.400;2024-01-10T01:40:15;29.05;;;17.27;;
51312;SDS011;37397;53.226;10.400;2024-01-10T01:42:43;29.10;;;17.00;;
51312;SDS011;37397;53.226;10.400;2024-01-10T01:45:11;34.95;;;18.70;;
51312;SDS011;37397;53.226;10.400;2024-01-10T01:47:38;32.03;;;17.35;;
51312;SDS011;37397;53.226;10.400;2024-01-10T01:50:06;32.00;;;17.40;;
51312;SDS011;37397;53.226;10.400;2024-01-10T01:52:33;30.83;;;17.80;;
51312;SDS011;37397;53.226;10.400;2024-01-10T01:55:01;31.52;;;18.13;;
51312;SDS011;37397;53.226;10.400;2024-01-10T01:57:28;31.17;;;18.08;;
51312;SDS011;37397;53.226;10.400;2024-01-10T01:59:56;30.35;;;17.27;;
51312;SDS011;37397;53.226;10.400;2024-01-10T02:02:22;32.20;;;17.60;;
51312;SDS011;37397;53.226;10.400;2024-01-10T02:04:50;31.00;;;16.52;;
51312;SDS011;37397;53.226;10.400;2024-01-10T02:07:17;35.28;;;18.30;;
51312;SDS011;37397;53.226;10.400;2024-01-10T02:09:43;31.13;;;18.20;;
51312;SDS011;37397;53.226;10.400;2024-01-10T02:12:10;35.00;;;18.65;;
51312;SDS011;37397;53.226;10.400;2024-01-10T02:14:37;37.47;;;18.58;;
51312;SDS011;37397;53.226;10.400;2024-01-10T02:17:03;31.83;;;18.13;;
51312;SDS011;37397;53.226;10.400;2024-01-10T02:19:30;31.67;;;18.02;;
51312;SDS011;37397;53.226;10.400;2024-01-10T02:21:58;33.83;;;18.23;;
51312;SDS011;37397;53.226;10.400;2024-01-10T02:24:25;33.58;;;18.77;;
51312;SDS011;37397;53.226;10.400;2024-01-10T02:26:51;33.15;;;19.80;;
51312;SDS011;37397;53.226;10.400;2024-01-10T02:29:18;33.70;;;18.52;;
51312;SDS011;37397;53.226;10.400;2024-01-10T02:31:45;33.38;;;18.75;;
51312;SDS011;37397;53.226;10.400;2024-01-10T02:34:11;35.70;;;19.73;;
51312;SDS011;37397;53.226;10.400;2024-01-10T02:36:38;38.50;;;20.38;;
51312;SDS011;37397;53.226;10.400;2024-01-10T02:39:04;33.75;;;20.25;;
51312;SDS011;37397;53.226;10.400;2024-01-10T02:41:31;39.38;;;19.73;;
51312;SDS011;37397;53.226;10.400;2024-01-10T02:43:58;35.38;;;20.60;;
51312;SDS011;37397;53.226;10.400;2024-01-10T02:46:25;35.83;;;19.15;;
51312;SDS011;37397;53.226;10.400;2024-01-10T02:48:55;35.30;;;19.42;;
51312;SDS011;37397;53.226;10.400;2024-01-10T02:51:23;39.63;;;21.67;;
51312;SDS011;37397;53.226;10.400;2024-01-10T02:53:51;41.20;;;20.92;;
51312;SDS011;37397;53.226;10.400;2024-01-10T02:56:17;38.40;;;21.05;;
51312;SDS011;37397;53.226;10.400;2024-01-10T02:58:44;39.53;;;21.35;;
51312;SDS011;37397;53.226;10.400;2024-01-10T03:01:10;34.22;;;19.42;;
51312;SDS011;37397;53.226;10.400;2024-01-10T03:03:37;35.13;;;19.48;;
51312;SDS011;37397;53.226;10.400;2024-01-10T03:06:04;32.67;;;18.63;;
51312;SDS011;37397;53.226;10.400;2024-01-10T03:08:30;36.33;;;18.13;;
51312;SDS011;37397;53.226;10.400;2024-01-10T03:10:57;32.25;;;18.70;;
51312;SDS011;37397;53.226;10.400;2024-01-10T03:13:24;34.83;;;19.85;;
51312;SDS011;37397;53.226;10.400;2024-01-10T03:15:50;36.28;;;18.92;;
51312;SDS011;37397;53.226;10.400;2024-01-10T03:18:17;32.97;;;17.83;;
51312;SDS011;37397;53.226;10.400;2024-01-10T03:20:43;30.60;;;17.83;;
51312;SDS011;37397;53.226;10.400;2024-01-10T03:23:10;33.65;;;18.58;;
51312;SDS011;37397;53.226;10.400;2024-01-10T03:25:37;29.63;;;17.45;;
51312;SDS011;37397;53.226;10.400;2024-01-10T03:28:03;31.70;;;18.20;;
51312;SDS011;37397;53.226;10.400;2024-01-10T03:30:30;33.92;;;18.33;;
51312;SDS011;37397;53.226;10.400;2024-01-10T03:32:56;32.60;;;17.50;;
51312;SDS011;37397;53.226;10.400;2024-01-10T03:35:23;31.33;;;17.50;;
51312;SDS011;37397;53.226;10.400;2024-01-10T03:37:50;34.92;;;17.13;;
51312;SDS011;37397;53.226;10.400;2024-01-10T03:40:16;31.48;;;17.58;;
51312;SDS011;37397;53.226;10.400;2024-01-10T03:42:43;33.83;;;17.60;;
51312;SDS011;37397;53.226;10.400;2024-01-10T03:45:10;30.73;;;16.85;;
51312;SDS011;37397;53.226;10.400;2024-01-10T03:47:36;33.67;;;17.92;;
51312;SDS011;37397;53.226;10.400;2024-01-10T03:50:03;33.58;;;18.77;;
51312;SDS011;37397;53.226;10.400;2024-01-10T03:52:30;32.00;;;17.13;;
51312;SDS011;37397;53.226;10.400;2024-01-10T03:54:57;30.20;;;17.02;;
51312;SDS011;37397;53.226;10.400;2024-01-10T03:57:23;31.48;;;16.60;;
51312;SDS011;37397;53.226;10.400;2024-01-10T03:59:50;29.15;;;16.83;;
51312;SDS011;37397;53.226;10.400;2024-01-10T04:02:17;31.38;;;17.50;;
51312;SDS011;37397;53.226;10.400;2024-01-10T04:04:44;29.10;;;16.58;;
51312;SDS011;37397;53.226;10.400;2024-01-10T04:07:10;31.35;;;17.13;;
51312;SDS011;37397;53.226;10.400;2024-01-10T04:09:37;32.47;;;16.88;;
51312;SDS011;37397;53.226;10.400;2024-01-10T04:12:03;29.85;;;16.15;;
51312;SDS011;37397;53.226;10.400;2024-01-10T04:14:30;31.08;;;16.33;;
51312;SDS011;37397;53.226;10.400;2024-01-10T04:16:57;28.80;;;16.52;;
51312;SDS011;37397;53.226;10.400;2024-01-10T04:19:23;31.50;;;17.15;;
51312;SDS011;37397;53.226;10.400;2024-01-10T04:21:50;28.25;;;16.20;;
51312;SDS011;37397;53.226;10.400;2024-01-10T04:24:17;30.02;;;16.98;;
51312;SDS011;37397;53.226;10.400;2024-01-10T04:26:43;29.52;;;16.52;;
51312;SDS011;37397;53.226;10.400;2024-01-10T04:29:10;31.27;;;17.50;;
51312;SDS011;37397;53.226;10.400;2024-01-10T04:31:37;32.92;;;17.38;;
51312;SDS011;37397;53.226;10.400;2024-01-10T04:34:04;31.23;;;17.60;;
51312;SDS011;37397;53.226;10.400;2024-01-10T04:36:31;26.48;;;15.80;;
51312;SDS011;37397;53.226;10.400;2024-01-10T04:38:57;28.92;;;17.17;;
51312;SDS011;37397;53.226;10.400;2024-01-10T04:41:24;31.63;;;18.55;;
51312;SDS011;37397;53.226;10.400;2024-01-10T04:43:51;32.72;;;16.77;;
51312;SDS011;37397;53.226;10.400;2024-01-10T04:46:18;29.27;;;17.20;;
51312;SDS011;37397;53.226;10.400;2024-01-10T04:48:44;30.10;;;16.83;;
51312;SDS011;37397;53.226;10.400;2024-01-10T04:51:11;29.48;;;17.33;;
51312;SDS011;37397;53.226;10.400;2024-01-10T04:53:38;33.08;;;16.85;;
51312;SDS011;37397;53.226;10.400;2024-01-10T04:56:04;34.28;;;18.65;;
51312;SDS011;37397;53.226;10.400;2024-01-10T04:58:31;33.75;;;18.25;;
51312;SDS011;37397;53.226;10.400;2024-01-10T05:00:59;32.92;;;18.58;;
51312;SDS011;37397;53.226;10.400;2024-01-10T05:03:25;30.58;;;16.90;;
51312;SDS011;37397;53.226;10.400;2024-01-10T05:05:52;31.42;;;18.00;;
51312;SDS011;37397;53.226;10.400;2024-01-10T05:08:19;33.03;;;18.30;;
51312;SDS011;37397;53.226;10.400;2024-01-10T05:10:49;34.75;;;18.67;;
51312;SDS011;37397;53.226;10.400;2024-01-10T05:13:16;32.72;;;17.58;;
51312;SDS011;37397;53.226;10.400;2024-01-10T05:15:43;34.97;;;18.00;;
51312;SDS011;37397;53.226;10.400;2024-01-10T05:18:10;35.10;;;20.17;;
51312;SDS011;37397;53.226;10.400;2024-01-10T05:20:37;31.20;;;17.95;;
51312;SDS011;37397;53.226;10.400;2024-01-10T05:23:04;35.55;;;19.10;;
51312;SDS011;37397;53.226;10.400;2024-01-10T05:25:31;31.80;;;18.50;;
51312;SDS011;37397;53.226;10.400;2024-01-10T05:27:58;36.67;;;19.55;;
51312;SDS011;37397;53.226;10.400;2024-01-10T05:30:25;31.17;;;17.70;;
51312;SDS011;37397;53.226;10.400;2024-01-10T05:32:54;32.42;;;18.17;;
51312;SDS011;37397;53.226;10.400;2024-01-10T05:35:21;31.77;;;18.00;;
51312;SDS011;37397;53.226;10.400;2024-01-10T05:37:47;32.65;;;18.58;;
51312;SDS011;37397;53.226;10.400;2024-01-10T05:40:14;32.75;;;18.27;;
51312;SDS011;37397;53.226;10.400;2024-01-10T05:42:40;33.70;;;18.77;;
51312;SDS011;37397;53.226;10.400;2024-01-10T05:45:07;36.70;;;20.35;;
51312;SDS011;37397;53.226;10.400;2024-01-10T05:47:34;34.63;;;18.23;;
51312;SDS011;37397;53.226;10.400;2024-01-10T05:50:01;34.72;;;18.63;;
51312;SDS011;37397;53.226;10.400;2024-01-10T05:52:29;38.92;;;20.60;;
51312;SDS011;37397;53.226;10.400;2024-01-10T05:54:57;35.55;;;19.63;;
51312;SDS011;37397;53.226;10.400;2024-01-10T05:57:23;38.10;;;20.17;;
51312;SDS011;37397;53.226;10.400;2024-01-10T05:59:50;35.70;;;19.90;;
51312;SDS011;37397;53.226;10.400;2024-01-10T06:02:19;37.38;;;19.95;;
51312;SDS011;37397;53.226;10.400;2024-01-10T06:04:45;38.15;;;19.35;;
51312;SDS011;37397;53.226;10.400;2024-01-10T06:07:12;34.25;;;19.23;;
51312;SDS011;37397;53.226;10.400;2024-01-10T06:09:38;34.70;;;19.33;;
51312;SDS011;37397;53.226;10.400;2024-01-10T06:12:06;33.80;;;19.67;;
51312;SDS011;37397;53.226;10.400;2024-01-10T06:14:33;36.78;;;20.25;;
51312;SDS011;37397;53.226;10.400;2024-01-10T06:16:59;38.47;;;19.17;;
51312;SDS011;37397;53.226;10.400;2024-01-10T06:19:27;37.63;;;19.55;;
51312;SDS011;37397;53.226;10.400;2024-01-10T06:21:54;38.33;;;19.85;;
51312;SDS011;37397;53.226;10.400;2024-01-10T06:24:20;36.30;;;19.10;;
51312;SDS011;37397;53.226;10.400;2024-01-10T06:26:47;33.38;;;19.55;;
51312;SDS011;37397;53.226;10.400;2024-01-10T06:29:16;35.25;;;18.95;;
51312;SDS011;37397;53.226;10.400;2024-01-10T06:31:42;35.20;;;19.20;;
51312;SDS011;37397;53.226;10.400;2024-01-10T06:34:09;38.13;;;19.05;;
51312;SDS011;37397;53.226;10.400;2024-01-10T06:36:36;33.45;;;18.30;;
51312;SDS011;37397;53.226;10.400;2024-01-10T06:39:02;33.72;;;20.20;;
51312;SDS011;37397;53.226;10.400;2024-01-10T06:41:29;37.72;;;19.80;;
51312;SDS011;37397;53.226;10.400;2024-01-10T06:43:56;39.78;;;18.35;;
51312;SDS011;37397;53.226;10.400;2024-01-10T06:46:22;37.92;;;19.00;;
51312;SDS011;37397;53.226;10.400;2024-01-10T06:48:49;35.97;;;18.73;;
51312;SDS011;37397;53.226;10.400;2024-01-10T06:51:16;35.13;;;18.83;;
51312;SDS011;37397;53.226;10.400;2024-01-10T06:53:43;35.33;;;17.88;;
51312;SDS011;37397;53.226;10.400;2024-01-10T06:56:09;32.72;;;16.90;;
51312;SDS011;37397;53.226;10.400;2024-01-10T06:58:36;33.47;;;18.23;;
51312;SDS011;37397;53.226;10.400;2024-01-10T07:01:03;34.97;;;18.63;;
51312;SDS011;37397;53.226;10.400;2024-01-10T07:03:31;35.58;;;18.67;;
51312;SDS011;37397;53.226;10.400;2024-01-10T07:05:58;32.60;;;17.02;;
51312;SDS011;37397;53.226;10.400;2024-01-10T07:08:25;33.80;;;18.75;;
51312;SDS011;37397;53.226;10.400;2024-01-10T07:10:52;34.28;;;18.05;;
51312;SDS011;37397;53.226;10.400;2024-01-10T07:13:23;32.53;;;17.88;;
51312;SDS011;37397;53.226;10.400;2024-01-10T07:15:50;34.05;;;18.23;;
51312;SDS011;37397;53.226;10.400;2024-01-10T07:18:18;38.90;;;19.85;;
51312;SDS011;37397;53.226;10.400;2024-01-10T07:20:45;33.35;;;18.17;;
51312;SDS011;37397;53.226;10.400;2024-01-10T07:23:11;36.78;;;18.70;;
51312;SDS011;37397;53.226;10.400;2024-01-10T07:25:38;33.78;;;18.15;;
51312;SDS011;37397;53.226;10.400;2024-01-10T07:28:05;35.85;;;20.30;;
51312;SDS011;37397;53.226;10.400;2024-01-10T07:30:31;33.22;;;18.77;;
51312;SDS011;37397;53.226;10.400;2024-01-10T07:32:59;37.00;;;20.00;;
51312;SDS011;37397;53.226;10.400;2024-01-10T07:35:26;34.30;;;18.83;;
51312;SDS011;37397;53.226;10.400;2024-01-10T07:37:54;29.75;;;17.88;;
51312;SDS011;37397;53.226;10.400;2024-01-10T07:40:21;37.78;;;19.25;;
51312;SDS011;37397;53.226;10.400;2024-01-10T07:42:48;34.22;;;18.70;;
51312;SDS011;37397;53.226;10.400;2024-01-10T07:45:15;39.90;;;19.70;;
51312;SDS011;37397;53.226;10.400;2024-01-10T07:47:42;39.58;;;20.20;;
51312;SDS011;37397;53.226;10.400;2024-01-10T07:50:09;35.78;;;18.83;;
51312;SDS011;37397;53.226;10.400;2024-01-10T07:52:36;36.92;;;19.58;;
51312;SDS011;37397;53.226;10.400;2024-01-10T07:55:03;36.10;;;20.00;;
51312;SDS011;37397;53.226;10.400;2024-01-10T07:57:33;40.70;;;20.95;;
51312;SDS011;37397;53.226;10.400;2024-01-10T08:00:06;36.00;;;18.63;;
51312;SDS011;37397;53.226;10.400;2024-01-10T08:02:37;36.03;;;19.48;;
51312;SDS011;37397;53.226;10.400;2024-01-10T08:05:04;38.97;;;20.30;;
51312;SDS011;37397;53.226;10.400;2024-01-10T08:07:32;38.70;;;18.75;;
51312;SDS011;37397;53.226;10.400;2024-01-10T08:10:06;36.45;;;17.95;;
51312;SDS011;37397;53.226;10.400;2024-01-10T08:12:36;37.90;;;18.77;;
51312;SDS011;37397;53.226;10.400;2024-01-10T08:15:04;36.20;;;19.45;;
51312;SDS011;37397;53.226;10.400;2024-01-10T08:17:32;39.92;;;19.80;;
51312;SDS011;37397;53.226;10.400;2024-01-10T08:19:59;35.80;;;18.58;;
51312;SDS011;37397;53.226;10.400;2024-01-10T08:22:27;37.42;;;18.48;;
51312;SDS011;37397;53.226;10.400;2024-01-10T08:24:54;38.63;;;17.75;;
51312;SDS011;37397;53.226;10.400;2024-01-10T08:27:22;35.88;;;17.90;;
51312;SDS011;37397;53.226;10.400;2024-01-10T08:29:49;37.22;;;17.85;;
51312;SDS011;37397;53.226;10.400;2024-01-10T08:32:15;35.83;;;17.10;;
51312;SDS011;37397;53.226;10.400;2024-01-10T08:34:43;39.30;;;18.65;;
51312;SDS011;37397;53.226;10.400;2024-01-10T08:37:11;33.50;;;16.05;;
51312;SDS011;37397;53.226;10.400;2024-01-10T08:39:37;40.78;;;17.20;;
51312;SDS011;37397;53.226;10.400;2024-01-10T08:42:04;34.83;;;16.05;;
51312;SDS011;37397;53.226;10.400;2024-01-10T08:44:31;31.20;;;16.13;;
51312;SDS011;37397;53.226;10.400;2024-01-10T08:46:57;34.75;;;16.70;;
51312;SDS011;37397;53.226;10.400;2024-01-10T08:49:24;32.80;;;17.17;;
51312;SDS011;37397;53.226;10.400;2024-01-10T08:51:52;32.75;;;15.60;;
51312;SDS011;37397;53.226;10.400;2024-01-10T08:54:19;34.65;;;16.10;;
51312;SDS011;37397;53.226;10.400;2024-01-10T08:56:46;35.70;;;16.95;;
51312;SDS011;37397;53.226;10.400;2024-01-10T08:59:13;30.00;;;15.45;;
51312;SDS011;37397;53.226;10.400;2024-01-10T09:01:39;37.45;;;16.02;;
51312;SDS011;37397;53.226;10.400;2024-01-10T09:04:06;32.90;;;16.20;;
51312;SDS011;37397;53.226;10.400;2024-01-10T09:06:33;34.90;;;17.08;;
51312;SDS011;37397;53.226;10.400;2024-01-10T09:09:00;36.05;;;16.98;;
51312;SDS011;37397;53.226;10.400;2024-01-10T09:11:27;35.08;;;16.23;;
51312;SDS011;37397;53.226;10.400;2024-01-10T09:13:54;35.92;;;17.13;;
51312;SDS011;37397;53.226;10.400;2024-01-10T09:16:20;38.65;;;16.85;;
51312;SDS011;37397;53.226;10.400;2024-01-10T09:18:47;31.02;;;15.35;;
51312;SDS011;37397;53.226;10.400;2024-01-10T09:21:18;34.20;;;16.30;;
51312;SDS011;37397;53.226;10.400;2024-01-10T09:23:46;36.58;;;16.10;;
51312;SDS011;37397;53.226;10.400;2024-01-10T09:26:13;35.05;;;16.02;;
51312;SDS011;37397;53.226;10.400;2024-01-10T09:28:40;34.50;;;16.27;;
51312;SDS011;37397;53.226;10.400;2024-01-10T09:31:07;30.40;;;14.00;;
51312;SDS011;37397;53.226;10.400;2024-01-10T09:33:33;33.47;;;16.48;;
51312;SDS011;37397;53.226;10.400;2024-01-10T09:36:00;31.30;;;15.15;;
51312;SDS011;37397;53.226;10.400;2024-01-10T09:38:27;31.73;;;14.35;;
51312;SDS011;37397;53.226;10.400;2024-01-10T09:40:55;35.35;;;16.10;;
51312;SDS011;37397;53.226;10.400;2024-01-10T09:43:29;32.63;;;15.38;;
51312;SDS011;37397;53.226;10.400;2024-01-10T09:45:57;34.25;;;15.95;;
51312;SDS011;37397;53.226;10.400;2024-01-10T09:48:28;33.55;;;16.27;;
51312;SDS011;37397;53.226;10.400;2024-01-10T09:50:56;30.65;;;15.55;;
51312;SDS011;37397;53.226;10.400;2024-01-10T09:53:23;33.80;;;15.82;;
51312;SDS011;37397;53.226;10.400;2024-01-10T09:55:50;38.88;;;17.17;;
51312;SDS011;37397;53.226;10.400;2024-01-10T09:58:17;35.40;;;16.45;;
51312;SDS011;37397;53.226;10.400;2024-01-10T10:00:43;35.17;;;15.98;;
51312;SDS011;37397;53.226;10.400;2024-01-10T10:03:10;31.58;;;15.75;;
51312;SDS011;37397;53.226;10.400;2024-01-10T10:05:39;37.80;;;17.02;;
51312;SDS011;37397;53.226;10.400;2024-01-10T10:08:09;35.30;;;17.02;;
51312;SDS011;37397;53.226;10.400;2024-01-10T10:10:38;36.67;;;18.33;;
51312;SDS011;37397;53.226;10.400;2024-01-10T10:13:09;35.05;;;16.13;;
51312;SDS011;37397;53.226;10.400;2024-01-10T10:15:40;31.52;;;14.93;;
51312;SDS011;37397;53.226;10.400;2024-01-10T10:18:13;32.60;;;16.13;;
51312;SDS011;37397;53.226;10.400;2024-01-10T10:20:40;32.55;;;15.23;;
51312;SDS011;37397;53.226;10.400;2024-01-10T10:23:07;34.45;;;16.50;;
51312;SDS011;37397;53.226;10.400;2024-01-10T10:25:42;35.10;;;15.43;;
51312;SDS011;37397;53.226;10.400;2024-01-10T10:28:10;35.58;;;17.75;;
51312;SDS011;37397;53.226;10.400;2024-01-10T10:30:51;35.97;;;17.08;;
51312;SDS011;37397;53.226;10.400;2024-01-10T10:33:18;37.22;;;16.38;;
51312;SDS011;37397;53.226;10.400;2024-01-10T10:35:45;35.38;;;16.90;;
51312;SDS011;37397;53.226;10.400;2024-01-10T10:38:15;35.47;;;16.33;;
51312;SDS011;37397;53.226;10.400;2024-01-10T10:40:42;33.42;;;15.57;;
51312;SDS011;37397;53.226;10.400;2024-01-10T10:43:10;40.72;;;17.98;;
51312;SDS011;37397;53.226;10.400;2024-01-10T10:45:41;36.97;;;18.30;;
51312;SDS011;37397;53.226;10.400;2024-01-10T10:48:13;36.07;;;17.07;;
51312;SDS011;37397;53.226;10.400;2024-01-10T10:50:45;32.80;;;16.58;;
51312;SDS011;37397;53.226;10.400;2024-01-10T10:53:21;42.08;;;17.23;;
51312;SDS011;37397;53.226;10.400;2024-01-10T10:55:51;32.58;;;16.48;;
51312;SDS011;37397;53.226;10.400;2024-01-10T10:58:19;35.58;;;17.02;;
51312;SDS011;37397;53.226;10.400;2024-01-10T11:00:50;37.33;;;17.60;;
51312;SDS011;37397;53.226;10.400;2024-01-10T11:03:18;42.13;;;18.52;;
51312;SDS011;37397;53.226;10.400;2024-01-10T11:05:47;33.67;;;15.85;;
51312;SDS011;37397;53.226;10.400;2024-01-10T11:08:15;36.25;;;16.33;;
51312;SDS011;37397;53.226;10.400;2024-01-10T11:10:45;36.95;;;16.98;;
51312;SDS011;37397;53.226;10.400;2024-01-10T11:13:26;39.15;;;17.35;;
51312;SDS011;37397;53.226;10.400;2024-01-10T11:18:52;41.13;;;18.20;;
51312;SDS011;37397;53.226;10.400;2024-01-10T11:21:35;39.08;;;17.23;;
51312;SDS011;37397;53.226;10.400;2024-01-10T11:24:04;36.72;;;16.65;;
51312;SDS011;37397;53.226;10.400;2024-01-10T11:26:33;38.28;;;18.08;;
51312;SDS011;37397;53.226;10.400;2024-01-10T11:28:59;39.60;;;18.45;;
51312;SDS011;37397;53.226;10.400;2024-01-10T11:31:27;36.92;;;17.08;;
51312;SDS011;37397;53.226;10.400;2024-01-10T11:33:58;38.40;;;18.08;;
51312;SDS011;37397;53.226;10.400;2024-01-10T11:36:27;36.45;;;16.75;;
51312;SDS011;37397;53.226;10.400;2024-01-10T11:38:54;34.17;;;16.77;;
51312;SDS011;37397;53.226;10.400;2024-01-10T11:41:26;36.50;;;16.65;;
51312;SDS011;37397;53.226;10.400;2024-01-10T11:46:35;34.67;;;17.17;;
51312;SDS011;37397;53.226;10.400;2024-01-10T11:49:09;34.05;;;15.65;;
51312;SDS011;37397;53.226;10.400;2024-01-10T11:51:38;33.35;;;17.00;;
51312;SDS011;37397;53.226;10.400;2024-01-10T11:54:05;31.63;;;15.93;;
51312;SDS011;37397;53.226;10.400;2024-01-10T11:56:37;35.25;;;16.63;;
51312;SDS011;37397;53.226;10.400;2024-01-10T11:59:12;36.05;;;15.98;;
51312;SDS011;37397;53.226;10.400;2024-01-10T12:01:43;32.67;;;16.05;;
51312;SDS011;37397;53.226;10.400;2024-01-10T12:04:09;29.17;;;14.50;;
51312;SDS011;37397;53.226;10.400;2024-01-10T12:06:48;34.10;;;14.98;;
51312;SDS011;37397;53.226;10.400;2024-01-10T12:09:16;33.47;;;15.38;;
51312;SDS011;37397;53.226;10.400;2024-01-10T12:11:43;29.65;;;14.88;;
51312;SDS011;37397;53.226;10.400;2024-01-10T12:14:10;34.05;;;15.35;;
51312;SDS011;37397;53.226;10.400;2024-01-10T12:16:39;29.42;;;13.27;;
51312;SDS011;37397;53.226;10.400;2024-01-10T12:19:06;30.60;;;14.35;;
51312;SDS011;37397;53.226;10.400;2024-01-10T12:21:32;32.78;;;15.10;;
51312;SDS011;37397;53.226;10.400;2024-01-10T12:23:59;30.08;;;13.73;;
51312;SDS011;37397;53.226;10.400;2024-01-10T12:26:26;28.10;;;13.98;;
51312;SDS011;37397;53.226;10.400;2024-01-10T12:28:59;31.15;;;14.00;;
51312;SDS011;37397;53.226;10.400;2024-01-10T12:31:29;30.55;;;14.55;;
51312;SDS011;37397;53.226;10.400;2024-01-10T12:33:56;29.90;;;15.15;;
51312;SDS011;37397;53.226;10.400;2024-01-10T12:36:24;26.88;;;13.63;;
51312;SDS011;37397;53.226;10.400;2024-01-10T12:38:50;29.35;;;14.13;;
51312;SDS011;37397;53.226;10.400;2024-01-10T12:41:18;30.15;;;13.50;;
51312;SDS011;37397;53.226;10.400;2024-01-10T12:43:49;29.88;;;14.63;;
51312;SDS011;37397;53.226;10.400;2024-01-10T12:46:18;28.02;;;13.57;;
51312;SDS011;37397;53.226;10.400;2024-01-10T12:48:44;27.58;;;12.95;;
51312;SDS011;37397;53.226;10.400;2024-01-10T12:51:12;28.10;;;13.40;;
51312;SDS011;37397;53.226;10.400;2024-01-10T12:53:42;29.92;;;13.95;;
51312;SDS011;37397;53.226;10.400;2024-01-10T12:56:10;31.10;;;14.07;;
51312;SDS011;37397;53.226;10.400;2024-01-10T12:58:40;26.08;;;12.45;;
51312;SDS011;37397;53.226;10.400;2024-01-10T13:01:08;24.85;;;13.15;;
51312;SDS011;37397;53.226;10.400;2024-01-10T13:03:35;28.85;;;13.77;;
51312;SDS011;37397;53.226;10.400;2024-01-10T13:06:02;23.17;;;12.27;;
51312;SDS011;37397;53.226;10.400;2024-01-10T13:08:28;28.65;;;12.52;;
51312;SDS011;37397;53.226;10.400;2024-01-10T13:10:55;26.35;;;13.38;;
51312;SDS011;37397;53.226;10.400;2024-01-10T13:13:22;29.10;;;12.88;;
51312;SDS011;37397;53.226;10.400;2024-01-10T13:15:48;30.85;;;14.02;;
51312;SDS011;37397;53.226;10.400;2024-01-10T13:18:15;26.83;;;12.38;;
51312;SDS011;37397;53.226;10.400;2024-01-10T13:20:42;24.48;;;11.90;;
51312;SDS011;37397;53.226;10.400;2024-01-10T13:23:09;26.75;;;12.93;;
51312;SDS011;37397;53.226;10.400;2024-01-10T13:25:36;24.65;;;12.18;;
51312;SDS011;37397;53.226;10.400;2024-01-10T13:28:03;28.38;;;13.65;;
51312;SDS011;37397;53.226;10.400;2024-01-10T13:30:30;28.40;;;13.48;;
51312;SDS011;37397;53.226;10.400;2024-01-10T13:32:57;28.20;;;11.90;;
51312;SDS011;37397;53.226;10.400;2024-01-10T13:35:24;26.38;;;12.43;;
51312;SDS011;37397;53.226;10.400;2024-01-10T13:37:51;26.77;;;12.45;;
51312;SDS011;37397;53.226;10.400;2024-01-10T13:40:17;26.88;;;13.52;;
51312;SDS011;37397;53.226;10.400;2024-01-10T13:42:50;29.75;;;13.13;;
51312;SDS011;37397;53.226;10.400;2024-01-10T13:45:16;29.10;;;12.93;;
51312;SDS011;37397;53.226;10.400;2024-01-10T13:47:43;29.00;;;13.52;;
51312;SDS011;37397;53.226;10.400;2024-01-10T13:50:10;28.75;;;12.98;;
51312;SDS011;37397;53.226;10.400;2024-01-10T13:52:36;27.70;;;12.93;;
51312;SDS011;37397;53.226;10.400;2024-01-10T13:55:03;26.40;;;11.98;;
51312;SDS011;37397;53.226;10.400;2024-01-10T13:57:33;28.73;;;13.50;;
51312;SDS011;37397;53.226;10.400;2024-01-10T14:00:00;26.38;;;12.35;;
51312;SDS011;37397;53.226;10.400;2024-01-10T14:02:37;28.08;;;13.07;;
51312;SDS011;37397;53.226;10.400;2024-01-10T14:05:04;27.30;;;13.55;;
51312;SDS011;37397;53.226;10.400;2024-01-10T14:07:32;28.58;;;13.45;;
51312;SDS011;37397;53.226;10.400;2024-01-10T14:10:00;31.25;;;14.65;;
51312;SDS011;37397;53.226;10.400;2024-01-10T14:12:27;26.55;;;13.70;;
51312;SDS011;37397;53.226;10.400;2024-01-10T14:14:55;27.50;;;13.15;;
51312;SDS011;37397;53.226;10.400;2024-01-10T14:17:24;28.10;;;13.15;;